Time;durP1;ratioP1;P1;durP2;ratioP2;P2;SDS_P1;SDS_P2;PMS_P1;PMS_P2;Temp;Humidity;BMP_temperature;BMP_pressure;BME280_temperature;BME280_humidity;BME280_pressure;Samples;Min_cycle;Max_cycle;Signal;HPM_P1;HPM_P2
2022/05/22 00:02:07;;;;;;;;;;;15.30;99.90;;;;;;5054142;28;19955;-69
2022/05/22 00:04:32;;;;;;;;;;;15.30;99.90;;;;;;5055916;28;20004;-70
2022/05/22 00:06:58;;;;;;;;;;;15.20;99.90;;;;;;5055802;28;20349;-70
2022/05/22 00:09:23;;;;;;;;;;;15.30;99.90;;;;;;5056107;28;19970;-69
2022/05/22 00:11:49;;;;;;;;;;;15.30;99.90;;;;;;5067150;28;20017;-70
2022/05/22 00:14:15;;;;;;;;;;;15.30;99.90;;;;;;5066330;28;19913;-70
2022/05/22 00:16:42;;;;;;;;;;;15.20;99.90;;;;;;5066669;28;19893;-69
2022/05/22 00:19:07;;;;;;;;;;;15.20;99.90;;;;;;5060737;28;19913;-69
2022/05/22 00:21:33;;;;;;;;;;;15.30;99.90;;;;;;5055177;28;20366;-69
2022/05/22 00:23:59;;;;;;;;;;;15.30;99.90;;;;;;5037904;28;19924;-69
2022/05/22 00:26:24;;;;;;;;;;;15.30;99.90;;;;;;5043688;28;19917;-68
2022/05/22 00:28:50;;;;;;;;;;;15.30;99.90;;;;;;5053699;28;19909;-68
2022/05/22 00:31:16;;;;;;;;;;;15.30;99.90;;;;;;5052375;28;19916;-69
2022/05/22 00:33:42;;;;;;;;;;;15.20;99.90;;;;;;5064530;28;19917;-69
2022/05/22 00:36:07;;;;;;;;;;;15.20;99.90;;;;;;5072425;28;20314;-70
2022/05/22 00:38:32;;;;;;;;;;;15.20;99.90;;;;;;5073795;28;19909;-69
2022/05/22 00:40:58;;;;;;;;;;;15.20;99.90;;;;;;5056229;28;19909;-70
2022/05/22 00:43:34;;;;;;;;;;;15.20;99.90;;;;;;5054195;28;19912;-69
2022/05/22 00:46:00;;;;;;;;;;;15.20;99.90;;;;;;5053426;28;20003;-69
2022/05/22 00:48:26;;;;;;;;;;;15.20;99.90;;;;;;5051377;28;20340;-69
2022/05/22 00:50:54;;;;;;;;;;;15.20;99.90;;;;;;5053583;28;19912;-69
2022/05/22 00:53:21;;;;;;;;;;;15.20;99.90;;;;;;5053612;28;19931;-70
2022/05/22 00:55:46;;;;;;;;;;;15.10;99.90;;;;;;5051870;28;20378;-70
2022/05/22 00:58:14;;;;;;;;;;;15.10;99.90;;;;;;5053599;28;19916;-69
2022/05/22 01:00:40;;;;;;;;;;;15.10;99.90;;;;;;5053596;28;19909;-68
2022/05/22 01:05:51;;;;;;;;;;;14.80;99.90;;;;;;5054402;28;19931;-69
2022/05/22 01:08:16;;;;;;;;;;;14.70;99.90;;;;;;5052132;28;20349;-69
2022/05/22 01:10:43;;;;;;;;;;;14.60;99.90;;;;;;5054260;28;19909;-68
2022/05/22 01:13:09;;;;;;;;;;;14.70;99.90;;;;;;5055014;28;19972;-70
2022/05/22 01:15:35;;;;;;;;;;;14.80;99.90;;;;;;5054523;28;20392;-69
2022/05/22 01:18:00;;;;;;;;;;;14.90;99.90;;;;;;5052631;28;20008;-68
2022/05/22 01:20:26;;;;;;;;;;;15.00;99.90;;;;;;5053519;28;20004;-69
2022/05/22 01:22:51;;;;;;;;;;;15.00;99.90;;;;;;5053509;28;20413;-71
2022/05/22 01:25:17;;;;;;;;;;;15.00;99.90;;;;;;5053646;28;19915;-70
2022/05/22 01:27:42;;;;;;;;;;;15.00;99.90;;;;;;5051592;28;20050;-70
2022/05/22 01:30:10;;;;;;;;;;;15.10;99.90;;;;;;5053907;28;19951;-70
2022/05/22 01:32:36;;;;;;;;;;;15.10;99.90;;;;;;5053373;28;20336;-69
2022/05/22 01:35:01;;;;;;;;;;;15.00;99.90;;;;;;5052721;28;19909;-69
2022/05/22 01:37:27;;;;;;;;;;;15.00;99.90;;;;;;5051567;28;20019;-69
2022/05/22 01:39:52;;;;;;;;;;;15.00;99.90;;;;;;5053080;28;19999;-68
2022/05/22 01:42:18;;;;;;;;;;;15.00;99.90;;;;;;5053081;28;19987;-69
2022/05/22 01:44:43;;;;;;;;;;;15.00;99.90;;;;;;5053218;28;19913;-69
2022/05/22 01:47:09;;;;;;;;;;;15.00;99.90;;;;;;5053393;28;19909;-68
2022/05/22 01:49:35;;;;;;;;;;;15.00;99.90;;;;;;5051075;28;19913;-69
2022/05/22 01:52:00;;;;;;;;;;;14.90;99.90;;;;;;5052978;28;19909;-69
2022/05/22 01:54:26;;;;;;;;;;;14.90;99.90;;;;;;5053351;28;19916;-69
2022/05/22 01:56:51;;;;;;;;;;;14.90;99.90;;;;;;5053097;28;19913;-68
2022/05/22 01:59:16;;;;;;;;;;;14.80;99.90;;;;;;5050880;28;20275;-70
2022/05/22 02:01:42;;;;;;;;;;;14.80;99.90;;;;;;5053606;28;19975;-69
2022/05/22 02:04:07;;;;;;;;;;;14.80;99.90;;;;;;5053851;28;20333;-69
2022/05/22 02:06:33;;;;;;;;;;;14.80;99.90;;;;;;5055775;28;20304;-69
2022/05/22 02:08:59;;;;;;;;;;;14.80;99.90;;;;;;5056199;28;20404;-69
2022/05/22 02:11:24;;;;;;;;;;;14.80;99.90;;;;;;5052984;28;19943;-69
2022/05/22 02:13:50;;;;;;;;;;;14.80;99.90;;;;;;5055464;28;19913;-68
2022/05/22 02:16:16;;;;;;;;;;;14.80;99.90;;;;;;5054910;28;19932;-70
2022/05/22 02:18:42;;;;;;;;;;;14.70;99.90;;;;;;5055758;28;19909;-68
2022/05/22 02:21:08;;;;;;;;;;;14.70;99.90;;;;;;5057376;28;19967;-68
2022/05/22 02:23:34;;;;;;;;;;;14.80;99.90;;;;;;5059407;28;20008;-69
2022/05/22 02:25:59;;;;;;;;;;;14.80;99.90;;;;;;5058759;28;19966;-69
2022/05/22 02:28:25;;;;;;;;;;;14.70;99.90;;;;;;5056361;28;19909;-69
2022/05/22 02:30:52;;;;;;;;;;;14.70;99.90;;;;;;5054240;28;19924;-69
2022/05/22 02:33:18;;;;;;;;;;;14.70;99.90;;;;;;5056034;28;20385;-69
2022/05/22 02:35:43;;;;;;;;;;;14.50;99.90;;;;;;5054053;28;19913;-69
2022/05/22 02:38:10;;;;;;;;;;;14.50;99.90;;;;;;5036225;28;20152;-69
2022/05/22 02:40:37;;;;;;;;;;;14.50;99.90;;;;;;5035655;28;19909;-70
2022/05/22 02:43:02;;;;;;;;;;;14.40;99.90;;;;;;5036143;28;19913;-70
2022/05/22 02:45:30;;;;;;;;;;;14.50;99.90;;;;;;5036266;28;19909;-70
2022/05/22 02:47:56;;;;;;;;;;;14.40;99.90;;;;;;5051342;28;19967;-70
2022/05/22 02:50:23;;;;;;;;;;;14.40;99.90;;;;;;5056079;28;19913;-69
2022/05/22 02:52:48;;;;;;;;;;;14.40;99.90;;;;;;5056576;28;20325;-70
2022/05/22 02:55:14;;;;;;;;;;;14.40;99.90;;;;;;5055960;28;19940;-69
2022/05/22 02:57:40;;;;;;;;;;;14.40;99.90;;;;;;5054668;28;19916;-68
2022/05/22 03:00:07;;;;;;;;;;;14.30;99.90;;;;;;5055601;28;19960;-69
2022/05/22 03:02:33;;;;;;;;;;;14.10;99.90;;;;;;5055531;28;19908;-69
2022/05/22 03:04:58;;;;;;;;;;;14.10;99.90;;;;;;5055655;28;19923;-69
2022/05/22 03:07:24;;;;;;;;;;;14.00;99.90;;;;;;5054019;28;19916;-68
2022/05/22 03:09:49;;;;;;;;;;;14.00;99.90;;;;;;5055413;28;19917;-69
2022/05/22 03:12:16;;;;;;;;;;;14.10;99.90;;;;;;5055635;28;19999;-69
2022/05/22 03:14:43;;;;;;;;;;;14.10;99.90;;;;;;5055508;28;19909;-69
2022/05/22 03:17:08;;;;;;;;;;;14.00;99.90;;;;;;5055247;28;20003;-68
2022/05/22 03:19:34;;;;;;;;;;;14.00;99.90;;;;;;5053340;28;19963;-69
2022/05/22 03:21:59;;;;;;;;;;;14.00;99.90;;;;;;5055203;28;19917;-69
2022/05/22 03:24:25;;;;;;;;;;;14.00;99.90;;;;;;5055497;28;19912;-69
2022/05/22 03:26:50;;;;;;;;;;;14.00;99.90;;;;;;5055314;28;19916;-70
2022/05/22 03:29:16;;;;;;;;;;;14.10;99.90;;;;;;5053294;28;19913;-69
2022/05/22 03:31:41;;;;;;;;;;;14.00;99.90;;;;;;5054407;28;20396;-69
2022/05/22 03:34:06;;;;;;;;;;;14.00;99.90;;;;;;5054927;28;19984;-68
2022/05/22 03:36:32;;;;;;;;;;;14.10;99.90;;;;;;5054902;28;20297;-69
2022/05/22 03:38:57;;;;;;;;;;;14.10;99.90;;;;;;5054997;28;20374;-69
2022/05/22 03:41:23;;;;;;;;;;;14.20;99.90;;;;;;5052641;28;19920;-69
2022/05/22 03:43:50;;;;;;;;;;;14.20;99.90;;;;;;5054784;28;19976;-69
2022/05/22 03:46:15;;;;;;;;;;;14.20;99.90;;;;;;5055161;28;19916;-69
2022/05/22 03:48:40;;;;;;;;;;;14.20;99.90;;;;;;5056485;28;20285;-70
2022/05/22 03:51:06;;;;;;;;;;;14.30;99.90;;;;;;5054026;28;20357;-70
2022/05/22 03:53:31;;;;;;;;;;;14.20;99.90;;;;;;5058735;28;19915;-69
2022/05/22 03:55:57;;;;;;;;;;;14.20;99.90;;;;;;5059140;28;19909;-69
2022/05/22 03:58:22;;;;;;;;;;;14.20;99.90;;;;;;5058704;28;19916;-70
2022/05/22 04:00:48;;;;;;;;;;;14.20;99.90;;;;;;5056935;28;19921;-69
2022/05/22 04:03:13;;;;;;;;;;;14.00;99.90;;;;;;5057530;28;20054;-70
2022/05/22 04:05:39;;;;;;;;;;;13.90;99.90;;;;;;5056779;28;19913;-69
2022/05/22 04:08:05;;;;;;;;;;;13.80;99.90;;;;;;5056578;28;19931;-69
2022/05/22 04:10:30;;;;;;;;;;;13.80;99.90;;;;;;5056524;28;20369;-70
2022/05/22 04:12:56;;;;;;;;;;;13.90;99.90;;;;;;5054052;28;19919;-68
2022/05/22 04:15:22;;;;;;;;;;;14.00;99.90;;;;;;5055231;28;19916;-69
2022/05/22 04:17:47;;;;;;;;;;;14.10;99.90;;;;;;5055697;28;19909;-69
2022/05/22 04:20:13;;;;;;;;;;;14.10;99.90;;;;;;5055000;28;20011;-70
2022/05/22 04:25:11;;;;;;;;;;;14.10;99.90;;;;;;5036870;28;19920;-69
2022/05/22 04:25:25;;;;;;;;;;;14.10;99.90;;;;;;5054649;28;19916;-69
2022/05/22 04:27:50;;;;;;;;;;;14.10;99.90;;;;;;5122090;22;19928;-74
2022/05/22 04:30:18;;;;;;;;;;;14.10;99.90;;;;;;5114056;28;20020;-75
2022/05/22 04:32:45;;;;;;;;;;;14.10;99.90;;;;;;5112338;27;19912;-74
2022/05/22 04:35:10;;;;;;;;;;;14.20;99.90;;;;;;5094187;28;20300;-74
2022/05/22 04:37:36;;;;;;;;;;;14.30;99.90;;;;;;5111561;28;19916;-74
2022/05/22 04:40:02;;;;;;;;;;;14.30;99.90;;;;;;5114259;28;20457;-75
2022/05/22 04:42:27;;;;;;;;;;;14.40;99.90;;;;;;5113313;28;19908;-76
2022/05/22 04:44:52;;;;;;;;;;;14.40;99.90;;;;;;5114104;28;19908;-75
2022/05/22 04:47:18;;;;;;;;;;;14.30;99.90;;;;;;5112345;28;19938;-75
2022/05/22 04:49:47;;;;;;;;;;;14.30;99.90;;;;;;5113887;28;19954;-74
2022/05/22 04:52:12;;;;;;;;;;;14.30;99.90;;;;;;5114061;28;19908;-74
2022/05/22 04:54:38;;;;;;;;;;;14.40;99.90;;;;;;5113682;28;19931;-75
2022/05/22 04:57:03;;;;;;;;;;;14.40;99.90;;;;;;5111006;28;19912;-76
2022/05/22 04:59:29;;;;;;;;;;;14.50;99.90;;;;;;5113328;28;19972;-75
2022/05/22 05:01:54;;;;;;;;;;;14.50;99.90;;;;;;5113839;28;19908;-74
2022/05/22 05:04:20;;;;;;;;;;;14.50;99.90;;;;;;5113764;28;19912;-74
2022/05/22 05:06:45;;;;;;;;;;;14.60;99.90;;;;;;5113905;28;20368;-75
2022/05/22 05:09:11;;;;;;;;;;;14.60;99.90;;;;;;5111821;28;20007;-74
2022/05/22 05:11:37;;;;;;;;;;;14.50;99.90;;;;;;5113969;28;19939;-74
2022/05/22 05:14:02;;;;;;;;;;;14.30;99.90;;;;;;5112527;28;19908;-74
2022/05/22 05:16:28;;;;;;;;;;;14.20;99.90;;;;;;5113760;28;19908;-75
2022/05/22 05:18:54;;;;;;;;;;;14.30;99.90;;;;;;5112214;28;19994;-75
2022/05/22 05:21:19;;;;;;;;;;;14.40;99.90;;;;;;5113432;28;19962;-75
2022/05/22 05:23:45;;;;;;;;;;;14.50;99.90;;;;;;5113580;28;19912;-75
2022/05/22 05:26:10;;;;;;;;;;;14.50;99.90;;;;;;5113265;28;19953;-74
2022/05/22 05:28:35;;;;;;;;;;;14.60;99.90;;;;;;5093951;28;20009;-75
2022/05/22 05:31:02;;;;;;;;;;;14.70;99.90;;;;;;5093789;28;19987;-74
2022/05/22 05:33:27;;;;;;;;;;;14.80;99.90;;;;;;5080946;28;19913;-75
2022/05/22 05:35:53;;;;;;;;;;;14.80;99.90;;;;;;5073186;28;19954;-75
2022/05/22 05:38:18;;;;;;;;;;;14.90;99.90;;;;;;5072607;28;19969;-75
2022/05/22 05:40:48;;;;;;;;;;;14.90;99.90;;;;;;5088832;28;20413;-75
2022/05/22 05:43:14;;;;;;;;;;;15.10;99.90;;;;;;5093798;28;19912;-75
2022/05/22 05:45:41;;;;;;;;;;;15.10;99.90;;;;;;5092675;28;19908;-74
2022/05/22 05:48:07;;;;;;;;;;;15.20;99.90;;;;;;5076579;28;19912;-74
2022/05/22 05:50:32;;;;;;;;;;;15.30;99.90;;;;;;5080880;28;19919;-75
2022/05/22 05:52:59;;;;;;;;;;;15.40;99.90;;;;;;5092653;28;19908;-75
2022/05/22 05:55:25;;;;;;;;;;;15.40;99.90;;;;;;5092040;28;19916;-76
2022/05/22 05:57:51;;;;;;;;;;;15.40;99.90;;;;;;5093736;28;19908;-75
2022/05/22 06:00:18;;;;;;;;;;;15.40;99.90;;;;;;5093197;28;19944;-75
2022/05/22 06:02:44;;;;;;;;;;;15.50;99.90;;;;;;5077266;28;19920;-75
2022/05/22 06:05:11;;;;;;;;;;;15.50;99.90;;;;;;5074473;28;22634;-74
2022/05/22 06:07:37;;;;;;;;;;;15.60;99.90;;;;;;5078379;28;19975;-75
2022/05/22 06:10:03;;;;;;;;;;;15.70;99.90;;;;;;5081222;28;19913;-73
2022/05/22 06:12:29;;;;;;;;;;;15.80;99.90;;;;;;5101967;28;19908;-75
2022/05/22 06:14:55;;;;;;;;;;;15.90;99.90;;;;;;5111698;28;20430;-74
2022/05/22 06:17:37;;;;;;;;;;;16.00;99.90;;;;;;5114329;28;19936;-74
2022/05/22 06:20:05;;;;;;;;;;;16.20;99.90;;;;;;5113588;28;19930;-74
2022/05/22 06:22:32;;;;;;;;;;;16.50;99.90;;;;;;5089261;28;19954;-75
2022/05/22 06:24:58;;;;;;;;;;;16.60;99.90;;;;;;5093390;28;19912;-74
2022/05/22 06:27:23;;;;;;;;;;;16.80;99.90;;;;;;5102403;28;19916;-74
2022/05/22 06:29:49;;;;;;;;;;;16.90;99.90;;;;;;5092406;28;20329;-74
2022/05/22 06:32:16;;;;;;;;;;;16.90;99.90;;;;;;5092644;28;20016;-75
2022/05/22 06:34:41;;;;;;;;;;;16.90;99.90;;;;;;5134429;28;19917;-75
2022/05/22 06:37:08;;;;;;;;;;;17.00;99.90;;;;;;5113041;28;20011;-75
2022/05/22 06:39:49;;;;;;;;;;;16.90;99.90;;;;;;5092885;28;20364;-75
2022/05/22 06:42:16;;;;;;;;;;;17.00;99.90;;;;;;5092811;28;19908;-75
2022/05/22 06:44:42;;;;;;;;;;;17.00;99.90;;;;;;5092715;28;19918;-74
2022/05/22 06:47:08;;;;;;;;;;;16.90;99.90;;;;;;5080687;28;20011;-71
2022/05/22 06:49:33;;;;;;;;;;;17.00;99.90;;;;;;5072526;28;19916;-70
2022/05/22 06:51:59;;;;;;;;;;;17.00;99.90;;;;;;5070402;28;20339;-71
2022/05/22 06:54:24;;;;;;;;;;;17.10;99.90;;;;;;5090934;28;20265;-71
2022/05/22 06:56:50;;;;;;;;;;;17.20;99.90;;;;;;5090769;28;20290;-72
2022/05/22 06:59:15;;;;;;;;;;;17.10;99.90;;;;;;5090195;28;19912;-70
2022/05/22 07:01:41;;;;;;;;;;;17.10;99.90;;;;;;5089866;28;20026;-71
2022/05/22 07:04:06;;;;;;;;;;;17.30;99.90;;;;;;5076455;28;20365;-72
2022/05/22 07:06:32;;;;;;;;;;;17.40;99.90;;;;;;5071891;28;19915;-74
2022/05/22 07:08:57;;;;;;;;;;;17.60;99.90;;;;;;5089738;28;19908;-71
2022/05/22 07:11:38;;;;;;;;;;;17.70;99.90;;;;;;5094875;28;19912;-72
2022/05/22 07:14:03;;;;;;;;;;;17.90;99.90;;;;;;5094623;28;20384;-70
2022/05/22 07:16:29;;;;;;;;;;;18.00;99.90;;;;;;5094655;28;19908;-72
2022/05/22 07:18:54;;;;;;;;;;;18.10;99.90;;;;;;5096021;28;19953;-74
2022/05/22 07:21:20;;;;;;;;;;;18.20;99.90;;;;;;5094510;28;20050;-72
2022/05/22 07:23:45;;;;;;;;;;;18.30;99.90;;;;;;5093043;28;19912;-72
2022/05/22 07:26:12;;;;;;;;;;;18.40;99.90;;;;;;5097639;28;19908;-72
2022/05/22 07:28:37;;;;;;;;;;;18.40;99.90;;;;;;5108088;28;19983;-73
2022/05/22 07:31:03;;;;;;;;;;;18.50;99.90;;;;;;5127516;28;19908;-72
2022/05/22 07:33:28;;;;;;;;;;;18.60;99.90;;;;;;5111404;28;19935;-72
2022/05/22 07:35:55;;;;;;;;;;;18.80;99.90;;;;;;5118200;28;19904;-71
2022/05/22 07:38:22;;;;;;;;;;;18.90;99.90;;;;;;5100336;28;19982;-72
2022/05/22 07:40:47;;;;;;;;;;;18.70;99.90;;;;;;5103338;28;19973;-72
2022/05/22 07:43:13;;;;;;;;;;;18.50;99.90;;;;;;5101528;28;19924;-74
2022/05/22 07:45:39;;;;;;;;;;;18.60;99.90;;;;;;5104450;28;19979;-71
2022/05/22 07:48:05;;;;;;;;;;;18.80;99.90;;;;;;5094042;28;19912;-70
2022/05/22 07:50:30;;;;;;;;;;;18.80;99.90;;;;;;5096868;28;19911;-72
2022/05/22 07:52:56;;;;;;;;;;;18.80;99.90;;;;;;5094344;28;19919;-71
2022/05/22 07:55:21;;;;;;;;;;;18.90;99.90;;;;;;5092385;28;19919;-71
2022/05/22 07:57:51;;;;;;;;;;;19.10;99.90;;;;;;5095180;28;20003;-72
2022/05/22 08:00:18;;;;;;;;;;;19.20;99.90;;;;;;5096759;28;19933;-72
2022/05/22 08:02:43;;;;;;;;;;;19.30;99.40;;;;;;5100178;28;19919;-74
2022/05/22 08:05:10;;;;;;;;;;;19.30;98.30;;;;;;5088710;28;19908;-71
2022/05/22 08:07:35;;;;;;;;;;;19.40;98.80;;;;;;5110761;28;19950;-71
2022/05/22 08:10:02;;;;;;;;;;;19.40;98.80;;;;;;5094911;28;19961;-73
2022/05/22 08:12:27;;;;;;;;;;;19.50;99.00;;;;;;5111389;28;19912;-71
2022/05/22 08:14:53;;;;;;;;;;;19.50;98.30;;;;;;5101121;28;19930;-72
2022/05/22 08:17:21;;;;;;;;;;;19.40;98.10;;;;;;5101788;28;19914;-70
2022/05/22 08:19:50;;;;;;;;;;;19.40;98.20;;;;;;5093779;28;19954;-70
2022/05/22 08:22:16;;;;;;;;;;;19.40;98.20;;;;;;5095828;28;20291;-71
2022/05/22 08:24:41;;;;;;;;;;;19.10;97.80;;;;;;5093803;28;19912;-70
2022/05/22 08:27:07;;;;;;;;;;;19.00;98.20;;;;;;5093776;28;19926;-72
2022/05/22 08:29:32;;;;;;;;;;;19.10;98.70;;;;;;5093851;28;20374;-73
2022/05/22 08:31:57;;;;;;;;;;;19.20;97.50;;;;;;5094021;28;19908;-71
2022/05/22 08:34:23;;;;;;;;;;;19.20;96.70;;;;;;5086891;28;20373;-71
2022/05/22 08:36:51;;;;;;;;;;;19.30;96.70;;;;;;5092887;28;20020;-71
2022/05/22 08:39:17;;;;;;;;;;;19.20;96.80;;;;;;5093516;28;19908;-72
2022/05/22 08:41:47;;;;;;;;;;;19.10;96.10;;;;;;5085021;28;19988;-73
2022/05/22 08:44:14;;;;;;;;;;;19.10;95.20;;;;;;5089595;28;19912;-71
2022/05/22 08:46:49;;;;;;;;;;;19.20;96.30;;;;;;5094706;28;19919;-71
2022/05/22 08:49:23;;;;;;;;;;;19.40;95.50;;;;;;5093528;28;20436;-72
2022/05/22 08:51:52;;;;;;;;;;;19.50;95.10;;;;;;5086277;28;20412;-72
2022/05/22 08:54:26;;;;;;;;;;;19.50;94.50;;;;;;5093335;28;19914;-72
2022/05/22 08:59:39;;;;;;;;;;;19.70;94.80;;;;;;5093362;28;19935;-73
2022/05/22 09:02:23;;;;;;;;;;;19.90;95.30;;;;;;5091886;28;19944;-72
2022/05/22 09:04:51;;;;;;;;;;;19.90;94.60;;;;;;5092381;28;19935;-73
2022/05/22 09:07:20;;;;;;;;;;;20.00;94.20;;;;;;5085621;28;19971;-72
2022/05/22 09:09:48;;;;;;;;;;;19.90;93.50;;;;;;5094097;28;20288;-75
2022/05/22 09:12:29;;;;;;;;;;;19.80;93.70;;;;;;5093650;28;20250;-74
2022/05/22 09:15:14;;;;;;;;;;;19.80;93.60;;;;;;5078580;28;19911;-73
2022/05/22 09:17:43;;;;;;;;;;;19.90;94.80;;;;;;5093236;28;20369;-71
2022/05/22 09:20:13;;;;;;;;;;;20.00;94.60;;;;;;5093652;28;19916;-70
2022/05/22 09:22:53;;;;;;;;;;;20.20;94.80;;;;;;5092957;28;19947;-71
2022/05/22 09:25:18;;;;;;;;;;;20.40;94.50;;;;;;5092995;28;19959;-70
2022/05/22 09:27:50;;;;;;;;;;;20.60;94.40;;;;;;5092911;28;20314;-71
2022/05/22 09:30:21;;;;;;;;;;;20.80;94.50;;;;;;5091914;28;19947;-70
2022/05/22 09:32:59;;;;;;;;;;;21.00;94.30;;;;;;5092692;28;19934;-71
2022/05/22 09:35:51;;;;;;;;;;;21.30;93.50;;;;;;5094085;28;20372;-71
2022/05/22 09:44:14;;;;;;;;;;;21.90;91.90;;;;;;5020710;28;19931;-73
2022/05/22 09:46:50;;;;;;;;;;;21.80;92.10;;;;;;5028860;28;19909;-74
2022/05/22 09:49:25;;;;;;;;;;;22.10;92.10;;;;;;5021128;28;20266;-75
2022/05/22 09:52:03;;;;;;;;;;;22.20;90.80;;;;;;5018856;28;19924;-74
2022/05/22 09:54:28;;;;;;;;;;;22.00;90.00;;;;;;5015875;28;19921;-74
2022/05/22 09:57:20;;;;;;;;;;;21.60;90.40;;;;;;5021398;28;19913;-75
2022/05/22 10:00:00;;;;;;;;;;;21.40;90.10;;;;;;5023533;28;19992;-74
2022/05/22 10:02:44;;;;;;;;;;;21.80;91.30;;;;;;5023699;28;19934;-75
2022/05/22 10:05:11;;;;;;;;;;;22.20;91.20;;;;;;5024966;28;19917;-75
2022/05/22 10:07:36;;;;;;;;;;;22.40;90.20;;;;;;5024151;28;19955;-74
2022/05/22 10:10:07;;;;;;;;;;;22.50;89.70;;;;;;5014131;28;19948;-75
2022/05/22 10:12:45;;;;;;;;;;;22.70;89.40;;;;;;5011481;28;19913;-75
2022/05/22 10:15:17;;;;;;;;;;;22.90;88.70;;;;;;5019425;28;19973;-74
2022/05/22 10:18:01;;;;;;;;;;;23.00;88.80;;;;;;5013756;28;20438;-74
2022/05/22 10:20:42;;;;;;;;;;;23.20;87.40;;;;;;5015737;28;19913;-76
2022/05/22 10:23:28;;;;;;;;;;;23.30;87.60;;;;;;5014065;28;19967;-75
2022/05/22 10:25:53;;;;;;;;;;;23.30;83.80;;;;;;5020454;28;20259;-77
2022/05/22 10:28:21;;;;;;;;;;;23.30;82.40;;;;;;5014612;28;19920;-75
2022/05/22 10:30:49;;;;;;;;;;;23.20;82.20;;;;;;5017426;28;19966;-77
2022/05/22 10:33:18;;;;;;;;;;;23.30;81.00;;;;;;5013860;28;19968;-76
2022/05/22 10:36:05;;;;;;;;;;;23.30;80.50;;;;;;5023536;28;19952;-76
2022/05/22 10:38:36;;;;;;;;;;;23.00;79.70;;;;;;5014774;28;19928;-76
2022/05/22 10:43:59;;;;;;;;;;;22.80;81.30;;;;;;5027728;28;19928;-77
2022/05/22 10:46:24;;;;;;;;;;;23.00;81.00;;;;;;5025708;28;20344;-76
2022/05/22 10:48:53;;;;;;;;;;;23.20;81.10;;;;;;5024913;28;20104;-76
2022/05/22 10:51:28;;;;;;;;;;;23.10;80.70;;;;;;5027618;28;19913;-76
2022/05/22 10:53:54;;;;;;;;;;;23.20;81.20;;;;;;5027852;28;19913;-76
2022/05/22 10:56:21;;;;;;;;;;;23.20;80.70;;;;;;5022041;28;19913;-77
2022/05/22 10:58:57;;;;;;;;;;;22.90;79.70;;;;;;5026095;28;19966;-76
2022/05/22 11:01:24;;;;;;;;;;;23.10;80.50;;;;;;5019444;28;19917;-78
2022/05/22 11:03:59;;;;;;;;;;;23.30;79.20;;;;;;5023920;28;20004;-76
2022/05/22 11:06:25;;;;;;;;;;;23.40;78.60;;;;;;5030173;28;19917;-77
2022/05/22 11:08:52;;;;;;;;;;;23.30;77.30;;;;;;5025148;28;19928;-77
2022/05/22 11:11:20;;;;;;;;;;;22.90;78.40;;;;;;5027993;28;19917;-76
2022/05/22 11:13:45;;;;;;;;;;;23.00;79.20;;;;;;5029938;28;19921;-77
2022/05/22 11:16:15;;;;;;;;;;;23.00;78.20;;;;;;5018492;28;20527;-76
2022/05/22 11:18:41;;;;;;;;;;;23.30;78.30;;;;;;5025372;28;19929;-77
2022/05/22 11:21:24;;;;;;;;;;;23.40;76.80;;;;;;5025047;28;20290;-77
2022/05/22 11:24:25;;;;;;;;;;;23.50;77.80;;;;;;5026314;28;20424;-77
2022/05/22 11:26:53;;;;;;;;;;;23.50;79.80;;;;;;5024135;28;19967;-76
2022/05/22 11:29:19;;;;;;;;;;;23.40;82.00;;;;;;4997584;28;19917;-76
2022/05/22 11:31:56;;;;;;;;;;;23.50;82.10;;;;;;5019832;28;19963;-76
2022/05/22 11:34:40;;;;;;;;;;;23.30;80.80;;;;;;5012773;28;19913;-76
2022/05/22 11:37:24;;;;;;;;;;;23.40;81.90;;;;;;4997913;28;19913;-76
2022/05/22 11:39:58;;;;;;;;;;;23.40;81.60;;;;;;5014524;28;19920;-78
2022/05/22 11:42:26;;;;;;;;;;;23.40;81.00;;;;;;5002775;28;19917;-78
2022/05/22 11:44:57;;;;;;;;;;;22.90;81.70;;;;;;5016046;28;20476;-78
2022/05/22 11:47:31;;;;;;;;;;;22.60;82.80;;;;;;5024154;28;19913;-77
2022/05/22 11:50:20;;;;;;;;;;;22.20;82.80;;;;;;5009945;28;19948;-77
2022/05/22 11:53:00;;;;;;;;;;;22.10;83.20;;;;;;5023184;28;19917;-78
2022/05/22 11:55:34;;;;;;;;;;;22.30;83.50;;;;;;5011641;28;20416;-77
2022/05/22 11:58:00;;;;;;;;;;;22.40;83.30;;;;;;5012488;28;19914;-79
2022/05/22 12:00:28;;;;;;;;;;;22.70;83.80;;;;;;5025665;28;19914;-78
2022/05/22 12:03:12;;;;;;;;;;;22.90;84.10;;;;;;5017820;28;20373;-77
2022/05/22 12:05:45;;;;;;;;;;;23.10;84.40;;;;;;5014761;28;20449;-75
2022/05/22 12:08:14;;;;;;;;;;;23.00;83.90;;;;;;5014717;28;20520;-74
2022/05/22 12:11:02;;;;;;;;;;;22.60;83.80;;;;;;5022612;28;19997;-77
2022/05/22 12:13:34;;;;;;;;;;;22.30;84.40;;;;;;5022143;28;19978;-78
2022/05/22 12:16:04;;;;;;;;;;;22.10;85.70;;;;;;5025999;28;19913;-77
2022/05/22 12:18:38;;;;;;;;;;;22.20;85.70;;;;;;5023978;28;19920;-76
2022/05/22 12:21:22;;;;;;;;;;;22.50;85.70;;;;;;5025074;28;19914;-79
2022/05/22 12:23:56;;;;;;;;;;;22.40;84.60;;;;;;5016890;28;19922;-79
2022/05/22 12:26:24;;;;;;;;;;;22.40;85.00;;;;;;5013923;28;19987;-78
2022/05/22 12:29:08;;;;;;;;;;;22.60;85.20;;;;;;5020952;28;19948;-79
2022/05/22 12:31:38;;;;;;;;;;;22.80;85.60;;;;;;5022078;28;19917;-78
2022/05/22 12:34:07;;;;;;;;;;;22.70;85.90;;;;;;5022466;28;19921;-77
2022/05/22 12:36:32;;;;;;;;;;;22.50;85.80;;;;;;5017259;28;20006;-78
2022/05/22 12:39:09;;;;;;;;;;;22.30;85.50;;;;;;5029703;28;20044;-80
2022/05/22 12:41:40;;;;;;;;;;;22.30;85.50;;;;;;5027977;28;19929;-80
2022/05/22 12:44:06;;;;;;;;;;;22.40;86.10;;;;;;5033113;28;19927;-80
2022/05/22 12:46:32;;;;;;;;;;;22.70;86.60;;;;;;5021759;28;20319;-79
2022/05/22 12:49:03;;;;;;;;;;;22.90;86.80;;;;;;5031021;28;19963;-79
2022/05/22 12:51:33;;;;;;;;;;;23.00;86.30;;;;;;5026283;28;20378;-78
2022/05/22 12:54:17;;;;;;;;;;;23.30;85.60;;;;;;5021090;28;20374;-79
2022/05/22 12:56:43;;;;;;;;;;;23.30;84.60;;;;;;5033054;28;19913;-79
2022/05/22 12:59:22;;;;;;;;;;;23.20;84.00;;;;;;5022264;28;19914;-78
2022/05/22 13:01:55;;;;;;;;;;;23.10;82.80;;;;;;5033224;28;19963;-78
2022/05/22 13:04:35;;;;;;;;;;;22.90;83.70;;;;;;5043170;28;19967;-78
2022/05/22 13:07:06;;;;;;;;;;;23.20;83.80;;;;;;5036153;28;19920;-78
2022/05/22 13:09:31;;;;;;;;;;;23.40;83.20;;;;;;5033557;28;19909;-78
2022/05/22 13:12:03;;;;;;;;;;;23.20;83.60;;;;;;5043930;28;19944;-78
2022/05/22 13:14:50;;;;;;;;;;;23.40;83.00;;;;;;5029710;28;19920;-79
2022/05/22 13:17:16;;;;;;;;;;;23.60;82.20;;;;;;5041523;28;19914;-79
2022/05/22 13:19:53;;;;;;;;;;;23.30;81.70;;;;;;5033801;28;19916;-79
2022/05/22 13:22:51;;;;;;;;;;;23.20;82.10;;;;;;5026760;28;19916;-79
2022/05/22 13:25:28;;;;;;;;;;;23.50;83.30;;;;;;5014194;28;19913;-76
2022/05/22 13:27:53;;;;;;;;;;;23.70;83.40;;;;;;5028790;28;20415;-77
2022/05/22 13:30:21;;;;;;;;;;;23.90;81.90;;;;;;5023809;28;19913;-79
2022/05/22 13:32:59;;;;;;;;;;;24.00;81.10;;;;;;5031685;28;20231;-78
2022/05/22 13:35:26;;;;;;;;;;;23.80;79.90;;;;;;5025173;28;19921;-79
2022/05/22 13:37:53;;;;;;;;;;;24.10;80.20;;;;;;5022986;28;19992;-78
2022/05/22 13:40:29;;;;;;;;;;;24.30;80.50;;;;;;5017276;28;19997;-77
2022/05/22 13:43:08;;;;;;;;;;;24.50;79.80;;;;;;5034994;28;19963;-77
2022/05/22 13:45:56;;;;;;;;;;;24.70;79.10;;;;;;5027737;28;19918;-77
2022/05/22 13:48:29;;;;;;;;;;;24.60;77.30;;;;;;5020099;28;19909;-78
2022/05/22 13:54:03;;;;;;;;;;;24.70;76.40;;;;;;5038234;28;20055;-78
2022/05/22 13:56:49;;;;;;;;;;;24.60;74.60;;;;;;5039406;28;20366;-78
2022/05/22 13:59:22;;;;;;;;;;;24.60;74.70;;;;;;5027642;28;19913;-77
2022/05/22 14:01:48;;;;;;;;;;;24.90;74.20;;;;;;5030108;28;19920;-79
2022/05/22 14:04:14;;;;;;;;;;;25.20;73.50;;;;;;5040479;28;19924;-78
2022/05/22 14:06:39;;;;;;;;;;;25.40;72.90;;;;;;5023169;28;19909;-79
2022/05/22 14:09:05;;;;;;;;;;;25.30;73.30;;;;;;5034987;28;19909;-80
2022/05/22 14:11:35;;;;;;;;;;;25.50;72.80;;;;;;5021691;28;19968;-79
2022/05/22 14:14:07;;;;;;;;;;;25.60;71.30;;;;;;5032634;28;19913;-79
2022/05/22 14:16:35;;;;;;;;;;;25.20;70.40;;;;;;5016473;28;19916;-78
2022/05/22 14:19:01;;;;;;;;;;;25.10;70.50;;;;;;5027471;28;20067;-79
2022/05/22 14:21:27;;;;;;;;;;;24.90;71.20;;;;;;5022007;28;19959;-79
2022/05/22 14:26:37;;;;;;;;;;;25.20;71.70;;;;;;5030219;28;19916;-77
2022/05/22 14:29:05;;;;;;;;;;;25.60;72.30;;;;;;5020190;28;19909;-77
2022/05/22 14:31:39;;;;;;;;;;;25.90;70.50;;;;;;5032610;28;19939;-77
2022/05/22 14:34:05;;;;;;;;;;;26.00;69.60;;;;;;5045857;28;19994;-77
2022/05/22 14:36:30;;;;;;;;;;;26.20;69.30;;;;;;5016084;28;19957;-77
2022/05/22 14:38:57;;;;;;;;;;;26.40;68.70;;;;;;5018810;28;19920;-77
2022/05/22 14:41:28;;;;;;;;;;;26.60;68.90;;;;;;5030287;28;19915;-77
2022/05/22 14:43:53;;;;;;;;;;;26.50;67.90;;;;;;5018281;28;19917;-76
2022/05/22 14:46:23;;;;;;;;;;;26.50;68.40;;;;;;5027959;28;20366;-77